Wartrace, Illinois
Current Conditions -  °F | °C
As of 3:35 PM on Friday 19 Dec 2014 (Local Time) from KM30 Reporting Station
Clear Clear  
Wind Chill: 37°   Ceiling: Unl
Heat Index: 40°   Visibility: 10mi
Dew Point: 31°   Wind: 5mph
Humidity: 71%   Direction: 40°NE
Pressure: 30.23"   Gusts: NA
Location:  37.3798°N, 88.7652°W
Report Text: KM30 192135Z AUTO 04004KT 10SM CLR 04/00 A3023 RMK AO2 T00441005
Loading
Personal Weather Stations






























Interactive Weather Map New forecast layout! Learn more

10-Day Weather Forecast

Advertisements
Track Severe Weather on mobile